createdAt,value
2018-12-11T00:00:47.841Z,998.98
2018-12-11T00:01:47.829Z,998.96
2018-12-11T00:02:47.822Z,998.97
2018-12-11T00:03:47.811Z,998.93
2018-12-11T00:04:47.802Z,998.95
2018-12-11T00:05:47.799Z,998.99
2018-12-11T00:06:47.786Z,998.95
2018-12-11T00:07:47.784Z,998.97
2018-12-11T00:08:47.770Z,998.98
2018-12-11T00:09:47.815Z,998.95
2018-12-11T00:10:47.753Z,998.95
2018-12-11T00:11:47.745Z,998.87
2018-12-11T00:12:47.741Z,998.88
2018-12-11T00:13:47.727Z,998.95
2018-12-11T00:14:47.717Z,998.99
2018-12-11T00:15:47.710Z,998.97
2018-12-11T00:16:47.701Z,998.98
2018-12-11T00:17:47.691Z,998.88
2018-12-11T00:18:47.685Z,998.89
2018-12-11T00:19:47.673Z,998.90
2018-12-11T00:20:47.665Z,999.00
2018-12-11T00:21:47.658Z,999.00
2018-12-11T00:22:47.648Z,998.96
2018-12-11T00:23:47.653Z,998.90
2018-12-11T00:24:47.632Z,998.98
2018-12-11T00:25:47.623Z,999.03
2018-12-11T00:26:47.615Z,998.99
2018-12-11T00:27:47.606Z,999.03
2018-12-11T00:28:47.597Z,999.02
2018-12-11T00:29:47.590Z,999.09
2018-12-11T00:30:47.581Z,998.98
2018-12-11T00:31:47.571Z,999.06
2018-12-11T00:32:47.564Z,998.98
2018-12-11T00:33:47.555Z,999.01
2018-12-11T00:34:47.547Z,999.11
2018-12-11T00:35:47.538Z,999.17
2018-12-11T00:36:47.532Z,999.07
2018-12-11T00:37:47.520Z,998.94
2018-12-11T00:38:47.513Z,999.01
2018-12-11T00:39:47.502Z,998.99
2018-12-11T00:40:47.497Z,999.04
2018-12-11T00:41:47.486Z,998.97
2018-12-11T00:42:47.481Z,998.97
2018-12-11T00:43:47.468Z,998.97
2018-12-11T00:44:47.458Z,998.99
2018-12-11T00:45:47.455Z,998.92
2018-12-11T00:46:47.442Z,998.95
2018-12-11T00:47:47.431Z,999.04
2018-12-11T00:48:47.424Z,998.97
2018-12-11T00:49:47.423Z,998.92
2018-12-11T00:50:47.422Z,998.93
2018-12-11T00:51:47.398Z,998.99
2018-12-11T00:52:47.390Z,998.97
2018-12-11T00:53:47.380Z,998.96
2018-12-11T00:54:47.372Z,998.99
2018-12-11T00:55:47.363Z,998.92
2018-12-11T00:56:47.355Z,999.02
2018-12-11T00:57:47.346Z,998.96
2018-12-11T00:58:47.340Z,999.00
2018-12-11T00:59:47.328Z,998.95
2018-12-11T01:00:47.322Z,999.07
2018-12-11T01:01:47.311Z,999.01
2018-12-11T01:02:47.304Z,998.96
2018-12-11T01:03:47.293Z,998.98
2018-12-11T01:04:47.287Z,998.85
2018-12-11T01:05:47.275Z,998.95
2018-12-11T01:06:47.268Z,998.93
2018-12-11T01:07:47.260Z,998.86
2018-12-11T01:08:47.253Z,998.93
2018-12-11T01:09:47.241Z,998.98
2018-12-11T01:10:47.234Z,998.86
2018-12-11T01:11:47.225Z,998.93
2018-12-11T01:12:47.216Z,998.93
2018-12-11T01:13:47.209Z,998.83
2018-12-11T01:14:47.198Z,998.90
2018-12-11T01:15:47.192Z,998.90
2018-12-11T01:16:47.180Z,998.96
2018-12-11T01:17:47.172Z,998.79
2018-12-11T01:18:47.172Z,998.91
2018-12-11T01:19:47.155Z,998.90
2018-12-11T01:20:47.144Z,998.92
2018-12-11T01:21:47.138Z,998.91
2018-12-11T01:22:47.130Z,998.88
2018-12-11T01:23:47.121Z,998.86
2018-12-11T01:24:47.120Z,998.83
2018-12-11T01:25:47.101Z,998.87
2018-12-11T01:26:47.099Z,998.88
2018-12-11T01:27:47.086Z,998.92
2018-12-11T01:28:47.078Z,998.78
2018-12-11T01:29:47.067Z,998.84
2018-12-11T01:30:47.062Z,998.78
2018-12-11T01:31:47.105Z,998.81
2018-12-11T01:32:47.042Z,998.89
2018-12-11T01:33:47.040Z,998.89
2018-12-11T01:34:47.024Z,998.91
2018-12-11T01:35:47.015Z,998.78
2018-12-11T01:36:47.007Z,998.87
2018-12-11T01:37:47.002Z,998.85
2018-12-11T01:38:46.989Z,998.78
2018-12-11T01:39:46.978Z,998.94
2018-12-11T01:40:46.973Z,998.84
2018-12-11T01:41:46.962Z,998.83
2018-12-11T01:42:46.957Z,999.00
2018-12-11T01:43:46.946Z,998.99
2018-12-11T01:44:46.943Z,999.02
2018-12-11T01:45:46.930Z,998.97
2018-12-11T01:46:46.922Z,999.02
2018-12-11T01:47:46.915Z,999.01
2018-12-11T01:48:46.904Z,999.00
2018-12-11T01:49:46.894Z,999.03
2018-12-11T01:50:46.885Z,999.10
2018-12-11T01:51:46.885Z,998.97
2018-12-11T01:52:46.871Z,999.01
2018-12-11T01:53:46.861Z,999.04
2018-12-11T01:54:46.852Z,999.01
2018-12-11T01:55:46.843Z,999.06
2018-12-11T01:56:46.834Z,998.91
2018-12-11T01:57:46.825Z,998.91
2018-12-11T01:58:46.816Z,998.86
2018-12-11T01:59:46.807Z,998.90
2018-12-11T02:00:46.797Z,998.90
2018-12-11T02:01:46.790Z,998.86
2018-12-11T02:02:46.782Z,998.81
2018-12-11T02:03:46.772Z,998.92
2018-12-11T02:04:46.766Z,998.86
2018-12-11T02:05:46.756Z,998.86
2018-12-11T02:06:46.749Z,998.96
2018-12-11T02:07:46.738Z,998.99
2018-12-11T02:08:46.734Z,999.05
2018-12-11T02:09:46.723Z,998.89
2018-12-11T02:10:46.719Z,998.94
2018-12-11T02:11:46.703Z,998.89
2018-12-11T02:12:46.697Z,998.87
2018-12-11T02:13:46.689Z,998.88
2018-12-11T02:14:46.679Z,998.97
2018-12-11T02:15:46.673Z,998.98
2018-12-11T02:16:46.658Z,998.92
2018-12-11T02:17:46.652Z,998.87
2018-12-11T02:18:46.645Z,998.81
2018-12-11T02:19:46.634Z,998.89
2018-12-11T02:20:46.628Z,998.91
2018-12-11T02:21:46.617Z,998.89
2018-12-11T02:22:46.609Z,998.83
2018-12-11T02:23:46.606Z,998.85
2018-12-11T02:24:46.593Z,998.76
2018-12-11T02:25:46.582Z,998.83
2018-12-11T02:26:46.579Z,998.84
2018-12-11T02:27:46.581Z,998.85
2018-12-11T02:28:46.557Z,998.77
2018-12-11T02:29:46.549Z,998.83
2018-12-11T02:30:46.543Z,998.83
2018-12-11T02:31:46.532Z,998.89
2018-12-11T02:32:46.523Z,998.93
2018-12-11T02:33:46.521Z,998.90
2018-12-11T02:34:46.509Z,998.94
2018-12-11T02:35:46.497Z,998.92
2018-12-11T02:36:46.494Z,999.02
2018-12-11T02:37:46.482Z,998.90
2018-12-11T02:38:46.474Z,998.86
2018-12-11T02:39:46.472Z,998.94
2018-12-11T02:40:46.454Z,998.89
2018-12-11T02:41:46.449Z,998.93
2018-12-11T02:42:46.438Z,998.91
2018-12-11T02:43:46.430Z,998.86
2018-12-11T02:44:46.426Z,998.86
2018-12-11T02:45:46.416Z,998.96
2018-12-11T02:46:46.433Z,998.91
2018-12-11T02:47:46.397Z,998.87
2018-12-11T02:48:46.385Z,998.93
2018-12-11T02:49:46.392Z,999.01
2018-12-11T02:50:46.374Z,998.94
2018-12-11T02:51:46.362Z,999.01
2018-12-11T02:52:46.353Z,998.93
2018-12-11T02:53:46.343Z,998.97
2018-12-11T02:54:46.336Z,998.87
2018-12-11T02:55:46.327Z,999.00
2018-12-11T02:56:46.320Z,998.94
2018-12-11T02:57:46.314Z,998.97
2018-12-11T02:58:46.314Z,998.97
2018-12-11T02:59:46.298Z,998.98
2018-12-11T03:00:46.284Z,998.99
2018-12-11T03:01:46.275Z,998.83
2018-12-11T03:02:46.270Z,998.93
2018-12-11T03:03:46.259Z,998.88
2018-12-11T03:04:46.258Z,998.95
2018-12-11T03:05:46.243Z,998.92
2018-12-11T03:06:46.237Z,998.90
2018-12-11T03:07:46.227Z,998.91
2018-12-11T03:08:46.218Z,999.07
2018-12-11T03:09:46.209Z,998.95
2018-12-11T03:10:46.203Z,998.86
2018-12-11T03:11:46.191Z,998.95
2018-12-11T03:12:46.185Z,998.90
2018-12-11T03:13:46.176Z,998.92
2018-12-11T03:14:46.168Z,998.96
2018-12-11T03:15:46.158Z,998.94
2018-12-11T03:16:46.153Z,998.96
2018-12-11T03:17:46.146Z,999.05
2018-12-11T03:18:46.133Z,999.03
2018-12-11T03:19:46.123Z,999.04
2018-12-11T03:20:46.114Z,999.06
2018-12-11T03:21:46.110Z,999.03
2018-12-11T03:22:46.100Z,999.09
2018-12-11T03:23:46.095Z,999.05
2018-12-11T03:24:46.085Z,999.09
2018-12-11T03:25:46.074Z,999.07
2018-12-11T03:26:46.072Z,999.08
2018-12-11T03:27:46.056Z,999.13
2018-12-11T03:28:46.047Z,999.06
2018-12-11T03:29:46.038Z,999.13
2018-12-11T03:30:46.033Z,999.12
2018-12-11T03:31:46.025Z,999.16
2018-12-11T03:32:46.019Z,999.20
2018-12-11T03:33:46.010Z,999.14
2018-12-11T03:34:45.997Z,999.18
2018-12-11T03:35:45.990Z,999.17
2018-12-11T03:36:45.981Z,999.04
2018-12-11T03:37:45.975Z,999.20
2018-12-11T03:38:45.967Z,999.15
2018-12-11T03:39:45.959Z,999.12
2018-12-11T03:40:45.948Z,999.20
2018-12-11T03:41:45.939Z,999.20
2018-12-11T03:42:45.936Z,999.15
2018-12-11T03:43:45.923Z,999.19
2018-12-11T03:44:45.913Z,999.22
2018-12-11T03:45:45.911Z,999.23
2018-12-11T03:46:45.901Z,999.15
2018-12-11T03:47:45.895Z,999.12
2018-12-11T03:48:45.880Z,999.14
2018-12-11T03:49:45.873Z,999.26
2018-12-11T03:50:45.864Z,999.40
2018-12-11T03:51:45.856Z,999.35
2018-12-11T03:52:45.846Z,999.41
2018-12-11T03:53:45.839Z,999.24
2018-12-11T03:54:45.884Z,999.39
2018-12-11T03:55:45.822Z,999.27
2018-12-11T03:56:45.815Z,999.21
2018-12-11T03:57:45.804Z,999.31
2018-12-11T03:58:45.797Z,999.31
2018-12-11T03:59:45.786Z,999.26
2018-12-11T04:00:45.780Z,999.28
2018-12-11T04:01:45.770Z,999.21
2018-12-11T04:02:45.761Z,999.18
2018-12-11T04:03:45.755Z,999.28
2018-12-11T04:04:45.745Z,999.20
2018-12-11T04:05:45.735Z,999.27
2018-12-11T04:06:45.727Z,999.20
2018-12-11T04:07:45.719Z,999.26
2018-12-11T04:08:45.710Z,999.24
2018-12-11T04:09:45.704Z,999.24
2018-12-11T04:10:45.693Z,999.33
2018-12-11T04:11:45.686Z,999.28
2018-12-11T04:12:45.683Z,999.22
2018-12-11T04:13:45.666Z,999.26
2018-12-11T04:14:45.668Z,999.37
2018-12-11T04:15:45.648Z,999.28
2018-12-11T04:16:45.642Z,999.29
2018-12-11T04:17:45.632Z,999.32
2018-12-11T04:18:45.645Z,999.23
2018-12-11T04:19:45.611Z,999.19
2018-12-11T04:20:45.604Z,999.38
2018-12-11T04:21:45.596Z,999.28
2018-12-11T04:22:45.590Z,999.36
2018-12-11T04:23:45.579Z,999.28
2018-12-11T04:24:45.573Z,999.32
2018-12-11T04:25:45.563Z,999.34
2018-12-11T04:26:45.554Z,999.36
2018-12-11T04:27:45.547Z,999.37
2018-12-11T04:28:45.536Z,999.34
2018-12-11T04:29:45.529Z,999.44
2018-12-11T04:30:45.517Z,999.42
2018-12-11T04:31:45.509Z,999.46
2018-12-11T04:32:45.504Z,999.50
2018-12-11T04:33:45.492Z,999.49
2018-12-11T04:34:45.483Z,999.39
2018-12-11T04:35:45.477Z,999.47
2018-12-11T04:36:45.468Z,999.43
2018-12-11T04:37:45.462Z,999.38
2018-12-11T04:38:45.454Z,999.45
2018-12-11T04:39:45.440Z,999.51
2018-12-11T04:40:45.431Z,999.51
2018-12-11T04:41:45.426Z,999.48
2018-12-11T04:42:45.417Z,999.54
2018-12-11T04:43:45.412Z,999.56
2018-12-11T04:44:45.400Z,999.49
2018-12-11T04:45:45.389Z,999.59
2018-12-11T04:46:45.386Z,999.61
2018-12-11T04:47:45.378Z,999.60
2018-12-11T04:48:45.371Z,999.66
2018-12-11T04:49:45.353Z,999.64
2018-12-11T04:50:45.355Z,999.68
2018-12-11T04:51:45.339Z,999.68
2018-12-11T04:52:45.330Z,999.72
2018-12-11T04:53:45.320Z,999.70
2018-12-11T04:54:45.388Z,999.63
2018-12-11T04:55:45.368Z,999.67
2018-12-11T04:56:45.296Z,999.72
2018-12-11T04:57:45.287Z,999.61
2018-12-11T04:58:45.281Z,999.68
2018-12-11T04:59:45.270Z,999.63
2018-12-11T05:00:45.260Z,999.63
2018-12-11T05:01:45.251Z,999.60
2018-12-11T05:02:45.244Z,999.66
2018-12-11T05:03:45.236Z,999.62
2018-12-11T05:04:45.227Z,999.63
2018-12-11T05:05:45.219Z,999.61
2018-12-11T05:06:45.210Z,999.57
2018-12-11T05:07:45.200Z,999.59
2018-12-11T05:08:45.195Z,999.63
2018-12-11T05:09:45.190Z,999.60
2018-12-11T05:10:45.176Z,999.61
2018-12-11T05:11:45.165Z,999.60
2018-12-11T05:12:45.181Z,999.62
2018-12-11T05:13:45.156Z,999.59
2018-12-11T05:14:45.141Z,999.66
2018-12-11T05:15:45.133Z,999.66
2018-12-11T05:16:45.133Z,999.61
2018-12-11T05:17:45.116Z,999.64
2018-12-11T05:18:45.113Z,999.62
2018-12-11T05:19:45.096Z,999.59
2018-12-11T05:20:45.089Z,999.55
2018-12-11T05:21:45.082Z,999.55
2018-12-11T05:22:45.077Z,999.51
2018-12-11T05:23:45.068Z,999.55
2018-12-11T05:24:45.061Z,999.57
2018-12-11T05:25:45.050Z,999.64
2018-12-11T05:26:45.043Z,999.52
2018-12-11T05:27:45.033Z,999.52
2018-12-11T05:28:45.024Z,999.55
2018-12-11T05:29:45.017Z,999.49
2018-12-11T05:30:45.007Z,999.59
2018-12-11T05:31:44.998Z,999.43
2018-12-11T05:32:44.992Z,999.39
2018-12-11T05:33:44.982Z,999.50
2018-12-11T05:34:44.973Z,999.47
2018-12-11T05:35:44.983Z,999.41
2018-12-11T05:36:44.959Z,999.49
2018-12-11T05:37:44.948Z,999.40
2018-12-11T05:38:44.944Z,999.42
2018-12-11T05:39:44.930Z,999.42
2018-12-11T05:40:44.922Z,999.40
2018-12-11T05:41:44.915Z,999.42
2018-12-11T05:42:44.903Z,999.49
2018-12-11T05:43:44.895Z,999.41
2018-12-11T05:44:44.887Z,999.40
2018-12-11T05:45:44.879Z,999.41
2018-12-11T05:46:44.866Z,999.46
2018-12-11T05:47:44.862Z,999.48
2018-12-11T05:48:44.854Z,999.42
2018-12-11T05:49:44.846Z,999.57
2018-12-11T05:50:44.836Z,999.48
2018-12-11T05:51:44.827Z,999.52
2018-12-11T05:52:44.819Z,999.42
2018-12-11T05:53:44.811Z,999.54
2018-12-11T05:54:44.807Z,999.47
2018-12-11T05:55:44.794Z,999.50
2018-12-11T05:56:44.783Z,999.39
2018-12-11T05:57:44.777Z,999.47
2018-12-11T05:58:44.769Z,999.53
2018-12-11T05:59:44.762Z,999.62
2018-12-11T06:00:44.750Z,999.66
2018-12-11T06:01:44.740Z,999.58
2018-12-11T06:02:44.736Z,999.52
2018-12-11T06:03:44.722Z,999.54
2018-12-11T06:04:44.716Z,999.58
2018-12-11T06:05:44.706Z,999.55
2018-12-11T06:06:44.697Z,999.57
2018-12-11T06:07:44.690Z,999.62
2018-12-11T06:08:44.683Z,999.60
2018-12-11T06:09:44.683Z,999.57
2018-12-11T06:10:44.664Z,999.58
2018-12-11T06:11:44.712Z,999.59
2018-12-11T06:12:44.647Z,999.61
2018-12-11T06:13:44.637Z,999.59
2018-12-11T06:14:44.630Z,999.63
2018-12-11T06:15:44.622Z,999.60
2018-12-11T06:16:44.609Z,999.60
2018-12-11T06:17:44.602Z,999.63
2018-12-11T06:18:44.594Z,999.59
2018-12-11T06:19:44.586Z,999.57
2018-12-11T06:20:44.578Z,999.60
2018-12-11T06:21:44.568Z,999.62
2018-12-11T06:22:44.561Z,999.55
2018-12-11T06:23:44.550Z,999.64
2018-12-11T06:24:44.658Z,999.72
2018-12-11T06:25:44.534Z,999.65
2018-12-11T06:26:44.528Z,999.68
2018-12-11T06:27:44.519Z,999.70
2018-12-11T06:28:44.509Z,999.73
2018-12-11T06:29:44.501Z,999.66
2018-12-11T06:30:44.492Z,999.83
2018-12-11T06:31:44.480Z,999.70
2018-12-11T06:32:44.475Z,999.74
2018-12-11T06:33:44.463Z,999.79
2018-12-11T06:34:44.455Z,999.91
2018-12-11T06:35:44.446Z,999.84
2018-12-11T06:36:44.438Z,999.82
2018-12-11T06:37:44.432Z,999.91
2018-12-11T06:38:44.422Z,999.88
2018-12-11T06:39:44.412Z,999.80
2018-12-11T06:40:44.403Z,999.84
2018-12-11T06:41:44.396Z,999.93
2018-12-11T06:42:44.387Z,999.89
2018-12-11T06:43:44.382Z,999.84
2018-12-11T06:44:44.370Z,999.91
2018-12-11T06:45:44.362Z,999.86
2018-12-11T06:46:44.354Z,999.91
2018-12-11T06:47:44.344Z,999.95
2018-12-11T06:48:44.332Z,999.96
2018-12-11T06:49:44.328Z,1000.03
2018-12-11T06:50:44.320Z,1000.05
2018-12-11T06:51:44.309Z,1000.00
2018-12-11T06:52:44.302Z,999.92
2018-12-11T06:53:44.293Z,999.98
2018-12-11T06:54:44.285Z,1000.01
2018-12-11T06:55:44.275Z,1000.06
2018-12-11T06:56:44.269Z,999.97
2018-12-11T06:57:44.261Z,1000.05
2018-12-11T06:58:44.254Z,1000.02
2018-12-11T06:59:44.242Z,1000.08
2018-12-11T07:00:44.236Z,1000.02
2018-12-11T07:01:44.226Z,1000.03
2018-12-11T07:02:44.218Z,1000.13
2018-12-11T07:03:44.210Z,1000.12
2018-12-11T07:04:44.196Z,1000.12
2018-12-11T07:05:44.213Z,1000.18
2018-12-11T07:06:44.184Z,1000.14
2018-12-11T07:07:44.171Z,1000.20
2018-12-11T07:08:44.179Z,1000.24
2018-12-11T07:09:44.171Z,1000.19
2018-12-11T07:10:44.149Z,1000.28
2018-12-11T07:11:44.149Z,1000.28
2018-12-11T07:12:44.132Z,1000.26
2018-12-11T07:13:44.123Z,1000.34
2018-12-11T07:14:44.120Z,1000.32
2018-12-11T07:15:44.106Z,1000.29
2018-12-11T07:16:44.119Z,1000.36
2018-12-11T07:17:44.092Z,1000.24
2018-12-11T07:18:44.080Z,1000.30
2018-12-11T07:19:44.068Z,1000.29
2018-12-11T07:20:44.062Z,1000.20
2018-12-11T07:21:44.056Z,1000.29
2018-12-11T07:22:44.050Z,1000.31
2018-12-11T07:23:44.038Z,1000.28
2018-12-11T07:24:44.030Z,1000.27
2018-12-11T07:25:44.035Z,1000.20
2018-12-11T07:26:44.021Z,1000.13
2018-12-11T07:27:44.008Z,1000.17
2018-12-11T07:28:43.997Z,1000.20
2018-12-11T07:29:43.986Z,1000.28
2018-12-11T07:30:43.980Z,1000.18
2018-12-11T07:31:43.970Z,1000.30
2018-12-11T07:32:43.963Z,1000.24
2018-12-11T07:33:43.956Z,1000.22
2018-12-11T07:34:43.946Z,1000.29
2018-12-11T07:35:43.935Z,1000.25
2018-12-11T07:36:43.928Z,1000.33
2018-12-11T07:37:43.921Z,1000.26
2018-12-11T07:38:43.913Z,1000.34
2018-12-11T07:39:43.902Z,1000.32
2018-12-11T07:40:43.894Z,1000.31
2018-12-11T07:41:43.884Z,1000.40
2018-12-11T07:42:43.882Z,1000.41
2018-12-11T07:43:43.867Z,1000.39
2018-12-11T07:44:43.871Z,1000.33
2018-12-11T07:45:43.848Z,1000.35
2018-12-11T07:46:43.842Z,1000.35
2018-12-11T07:47:43.831Z,1000.38
2018-12-11T07:48:43.823Z,1000.41
2018-12-11T07:49:43.815Z,1000.37
2018-12-11T07:50:43.808Z,1000.37
2018-12-11T07:51:43.800Z,1000.31
2018-12-11T07:52:43.794Z,1000.38
2018-12-11T07:53:43.782Z,1000.32
2018-12-11T07:54:43.774Z,1000.32
2018-12-11T07:55:43.767Z,1000.37
2018-12-11T07:56:43.756Z,1000.29
2018-12-11T07:57:43.748Z,1000.29
2018-12-11T07:58:43.741Z,1000.26
2018-12-11T07:59:43.731Z,1000.27
2018-12-11T08:00:43.720Z,1000.33
2018-12-11T08:01:43.713Z,1000.31
2018-12-11T08:02:43.711Z,1000.41
2018-12-11T08:03:43.698Z,1000.36
2018-12-11T08:04:43.688Z,1000.31
2018-12-11T08:05:43.680Z,1000.36
2018-12-11T08:06:43.672Z,1000.38
2018-12-11T08:07:43.665Z,1000.40
2018-12-11T08:08:43.655Z,1000.35
2018-12-11T08:09:43.647Z,1000.41
2018-12-11T08:10:43.640Z,1000.41
2018-12-11T08:11:43.630Z,1000.37
2018-12-11T08:12:43.622Z,1000.49
2018-12-11T08:13:43.615Z,1000.39
2018-12-11T08:14:43.605Z,1000.44
2018-12-11T08:15:43.592Z,1000.49
2018-12-11T08:16:43.588Z,1000.42
2018-12-11T08:17:43.584Z,1000.48
2018-12-11T08:18:43.572Z,1000.49
2018-12-11T08:19:43.562Z,1000.49
2018-12-11T08:20:43.554Z,1000.54
2018-12-11T08:21:43.546Z,1000.54
2018-12-11T08:22:43.541Z,1000.56
2018-12-11T08:23:43.529Z,1000.50
2018-12-11T08:24:43.528Z,1000.52
2018-12-11T08:25:43.511Z,1000.58
2018-12-11T08:26:43.507Z,1000.53
2018-12-11T08:27:43.505Z,1000.47
2018-12-11T08:28:43.487Z,1000.48
2018-12-11T08:29:43.505Z,1000.54
2018-12-11T08:30:43.469Z,1000.54
2018-12-11T08:31:43.470Z,1000.55
2018-12-11T08:32:43.453Z,1000.54
2018-12-11T08:33:43.441Z,1000.60
2018-12-11T08:34:43.434Z,1000.54
2018-12-11T08:35:43.422Z,1000.52
2018-12-11T08:36:43.421Z,1000.53
2018-12-11T08:37:43.415Z,1000.54
2018-12-11T08:38:43.403Z,1000.58
2018-12-11T08:39:43.394Z,1000.54
2018-12-11T08:40:43.386Z,1000.61
2018-12-11T08:41:43.379Z,1000.65
2018-12-11T08:42:43.371Z,1000.63
2018-12-11T08:43:43.359Z,1000.61
2018-12-11T08:44:43.347Z,1000.60
2018-12-11T08:45:43.346Z,1000.61
2018-12-11T08:46:43.335Z,1000.63
2018-12-11T08:47:43.330Z,1000.63
2018-12-11T08:48:43.318Z,1000.60
2018-12-11T08:49:43.310Z,1000.60
2018-12-11T08:50:43.304Z,1000.69
2018-12-11T08:51:43.299Z,1000.61
2018-12-11T08:52:43.285Z,1000.65
2018-12-11T08:53:43.278Z,1000.70
2018-12-11T08:54:43.269Z,1000.64
2018-12-11T08:55:43.263Z,1000.71
2018-12-11T08:56:43.256Z,1000.72
2018-12-11T08:57:43.243Z,1000.72
2018-12-11T08:58:43.236Z,1000.68
2018-12-11T08:59:43.227Z,1000.57
2018-12-11T09:00:43.217Z,1000.67
2018-12-11T09:01:43.218Z,1000.75
2018-12-11T09:02:43.203Z,1000.76
2018-12-11T09:03:43.195Z,1000.72
2018-12-11T09:04:43.185Z,1000.62
2018-12-11T09:05:43.195Z,1000.65
2018-12-11T09:06:43.172Z,1000.72
2018-12-11T09:07:43.162Z,1000.74
2018-12-11T09:08:43.151Z,1000.62
2018-12-11T09:09:43.163Z,1000.77
2018-12-11T09:10:43.140Z,1000.62
2018-12-11T09:11:43.142Z,1000.71
2018-12-11T09:12:43.126Z,1000.71
2018-12-11T09:13:43.113Z,1000.70
2018-12-11T09:14:43.105Z,1000.74
2018-12-11T09:15:43.094Z,1000.75
2018-12-11T09:16:43.204Z,1000.83
2018-12-11T09:17:43.081Z,1000.77
2018-12-11T09:18:43.079Z,1000.92
2018-12-11T09:19:43.073Z,1000.84
2018-12-11T09:20:43.058Z,1000.78
2018-12-11T09:21:43.049Z,1000.84
2018-12-11T09:22:43.046Z,1000.83
2018-12-11T09:23:43.031Z,1000.81
2018-12-11T09:24:43.025Z,1000.86
2018-12-11T09:25:43.019Z,1000.84
2018-12-11T09:26:43.005Z,1000.88
2018-12-11T09:27:42.999Z,1000.80
2018-12-11T09:28:42.991Z,1000.91
2018-12-11T09:29:43.038Z,1000.83
2018-12-11T09:30:42.979Z,1000.94
2018-12-11T09:31:42.970Z,1000.84
2018-12-11T09:32:42.965Z,1000.89
2018-12-11T09:33:42.959Z,1000.85
2018-12-11T09:34:42.946Z,1000.88
2018-12-11T09:35:42.936Z,1000.91
2018-12-11T09:36:42.934Z,1000.94
2018-12-11T09:37:42.923Z,1000.93
2018-12-11T09:38:42.919Z,1000.88
2018-12-11T09:39:42.907Z,1000.93
2018-12-11T09:40:42.897Z,1000.89
2018-12-11T09:41:42.892Z,1000.88
2018-12-11T09:42:42.881Z,1000.92
2018-12-11T09:43:42.874Z,1000.90
2018-12-11T09:44:42.873Z,1001.02
2018-12-11T09:45:42.856Z,1000.84
2018-12-11T09:46:42.850Z,1000.84
2018-12-11T09:47:42.842Z,1000.91
2018-12-11T09:48:42.833Z,1000.92
2018-12-11T09:49:42.823Z,1000.85
2018-12-11T09:50:42.822Z,1000.93
2018-12-11T09:51:42.856Z,1000.81
2018-12-11T09:52:42.805Z,1000.99
2018-12-11T09:53:42.796Z,1000.80
2018-12-11T09:54:42.788Z,1000.83
2018-12-11T09:55:42.779Z,1000.83
2018-12-11T09:56:42.769Z,1000.73
2018-12-11T09:57:42.766Z,1000.68
2018-12-11T09:58:42.759Z,1000.76
2018-12-11T09:59:42.751Z,1000.78
2018-12-11T10:00:42.792Z,1000.80
2018-12-11T10:01:42.732Z,1000.81
2018-12-11T10:02:42.723Z,1000.82
2018-12-11T10:03:43.056Z,1000.78
2018-12-11T10:04:42.711Z,1000.74
2018-12-11T10:05:42.759Z,1000.72
2018-12-11T10:06:42.690Z,1000.76
2018-12-11T10:07:42.684Z,1000.62
2018-12-11T10:08:42.674Z,1000.69
2018-12-11T10:09:42.677Z,1000.86
2018-12-11T10:10:42.666Z,1000.65
2018-12-11T10:11:42.655Z,1000.76
2018-12-11T10:12:42.663Z,1000.70
2018-12-11T10:13:42.640Z,1000.71
2018-12-11T10:14:42.634Z,1000.73
2018-12-11T10:15:42.620Z,1000.67
2018-12-11T10:16:42.622Z,1000.70
2018-12-11T10:17:42.606Z,1000.68
2018-12-11T10:18:42.599Z,1000.73
2018-12-11T10:19:42.588Z,1000.64
2018-12-11T10:20:42.595Z,1000.70
2018-12-11T10:21:42.581Z,1000.70
2018-12-11T10:22:42.567Z,1000.64
2018-12-11T10:23:42.561Z,1000.65
2018-12-11T10:24:42.559Z,1000.63
2018-12-11T10:25:42.546Z,1000.65
2018-12-11T10:26:42.539Z,1000.64
2018-12-11T10:27:42.535Z,1000.59
2018-12-11T10:28:42.524Z,1000.69
2018-12-11T10:29:42.516Z,1000.64
2018-12-11T10:30:42.517Z,1000.67
2018-12-11T10:31:42.502Z,1000.66
2018-12-11T10:32:42.494Z,1000.60
2018-12-11T10:33:42.484Z,1000.68
2018-12-11T10:34:42.492Z,1000.73
2018-12-11T10:35:42.468Z,1000.69
2018-12-11T10:36:42.463Z,1000.63
2018-12-11T10:37:42.453Z,1000.65
2018-12-11T10:38:42.446Z,1000.67
2018-12-11T10:39:42.441Z,1000.59
2018-12-11T10:40:42.431Z,1000.69
2018-12-11T10:41:42.422Z,1000.63
2018-12-11T10:42:42.416Z,1000.67
2018-12-11T10:43:42.406Z,1000.62
2018-12-11T10:44:42.401Z,1000.67
2018-12-11T10:45:42.395Z,1000.67
2018-12-11T10:46:42.384Z,1000.64
2018-12-11T10:47:42.380Z,1000.65
2018-12-11T10:48:42.370Z,1000.68
2018-12-11T10:49:42.362Z,1000.62
2018-12-11T10:50:42.352Z,1000.75
2018-12-11T10:51:42.346Z,1000.74
2018-12-11T10:52:42.380Z,1000.65
2018-12-11T10:53:42.336Z,1000.71
2018-12-11T10:54:42.322Z,1000.69
2018-12-11T10:55:42.315Z,1000.67
2018-12-11T10:56:42.305Z,1000.67
2018-12-11T10:57:42.301Z,1000.65
2018-12-11T10:58:42.298Z,1000.69
2018-12-11T10:59:42.284Z,1000.61
2018-12-11T11:00:42.278Z,1000.59
2018-12-11T11:01:42.269Z,1000.66
2018-12-11T11:02:42.264Z,1000.73
2018-12-11T11:03:42.269Z,1000.76
2018-12-11T11:04:42.247Z,1000.75
2018-12-11T11:05:42.240Z,1000.70
2018-12-11T11:06:42.231Z,1000.66
2018-12-11T11:07:42.228Z,1000.82
2018-12-11T11:08:42.218Z,1000.81
2018-12-11T11:09:42.287Z,1000.74
2018-12-11T11:10:42.197Z,1000.75
2018-12-11T11:11:42.193Z,1000.80
2018-12-11T11:12:42.200Z,1000.78
2018-12-11T11:13:42.219Z,1000.83
2018-12-11T11:14:42.194Z,1000.82
2018-12-11T11:15:42.206Z,1000.77
2018-12-11T11:16:42.157Z,1000.80
2018-12-11T11:17:42.156Z,1000.87
2018-12-11T11:18:42.140Z,1000.85
2018-12-11T11:19:42.133Z,1000.90
2018-12-11T11:20:42.126Z,1000.90
2018-12-11T11:21:42.119Z,1000.90
2018-12-11T11:22:43.377Z,1000.92
2018-12-11T11:23:43.376Z,1000.91
2018-12-11T11:24:43.813Z,1000.88
2018-12-11T11:25:42.371Z,1000.94
2018-12-11T11:26:43.358Z,1000.93
2018-12-11T11:27:43.353Z,1000.95
2018-12-11T11:28:43.357Z,1000.93
2018-12-11T11:29:43.875Z,1000.88
2018-12-11T11:30:42.844Z,1000.90
2018-12-11T11:31:42.041Z,1000.93
2018-12-11T11:32:42.069Z,1000.95
2018-12-11T11:33:42.025Z,1000.93
2018-12-11T11:34:42.018Z,1000.92
2018-12-11T11:35:42.010Z,1000.93
2018-12-11T11:36:42.137Z,1000.89
2018-12-11T11:37:41.999Z,1000.95
2018-12-11T11:38:41.991Z,1000.92
2018-12-11T11:39:41.980Z,1000.95
2018-12-11T11:40:41.970Z,1001.01
2018-12-11T11:41:41.967Z,1000.88
2018-12-11T11:42:41.956Z,1000.99
2018-12-11T11:43:41.950Z,1000.98
2018-12-11T11:44:41.944Z,1000.98
2018-12-11T11:45:41.933Z,1000.94
2018-12-11T11:46:41.938Z,1000.92
2018-12-11T11:47:41.924Z,1000.97
2018-12-11T11:48:41.913Z,1000.93
2018-12-11T11:49:41.905Z,1000.99
2018-12-11T11:50:41.898Z,1000.93
2018-12-11T11:51:41.893Z,1001.01
2018-12-11T11:52:41.884Z,1000.99
2018-12-11T11:53:41.877Z,1001.03
2018-12-11T11:54:41.866Z,1001.00
2018-12-11T11:55:41.861Z,1000.96
2018-12-11T11:56:41.862Z,1001.03
2018-12-11T11:57:41.844Z,1000.98
2018-12-11T11:58:41.836Z,1000.97
2018-12-11T11:59:41.827Z,1001.01
2018-12-11T12:00:41.824Z,1000.99
2018-12-11T12:01:41.816Z,1001.02
2018-12-11T12:02:41.804Z,1001.05
2018-12-11T12:03:41.799Z,1001.01
2018-12-11T12:04:41.792Z,1001.03
2018-12-11T12:05:41.788Z,1001.02
2018-12-11T12:06:41.781Z,1001.05
2018-12-11T12:07:41.767Z,1001.11
2018-12-11T12:08:41.773Z,1001.08
2018-12-11T12:09:41.759Z,1001.18
2018-12-11T12:10:41.746Z,1001.07
2018-12-11T12:11:41.771Z,1001.10
2018-12-11T12:12:41.731Z,1001.04
2018-12-11T12:13:41.729Z,1001.09
2018-12-11T12:14:41.719Z,1001.16
2018-12-11T12:15:41.707Z,1001.22
2018-12-11T12:16:41.702Z,1001.19
2018-12-11T12:17:41.694Z,1001.22
2018-12-11T12:18:41.688Z,1001.15